Time;durP1;ratioP1;P1;durP2;ratioP2;P2;SDS_P1;SDS_P2;PMS_P1;PMS_P2;Temp;Humidity;BMP_temperature;BMP_pressure;BME280_temperature;BME280_humidity;BME280_pressure;Samples;Min_cycle;Max_cycle;Signal;HPM_P1;HPM_P2
2022/08/02 00:00:49;;;;;;;2.00;1.90;;;;;;;25.15;63.58;97638.22;5050817;28;20307;-31
2022/08/02 00:03:21;;;;;;;1.93;1.80;;;;;;;25.16;63.91;97644.22;5052953;28;20234;-31
2022/08/02 00:05:50;;;;;;;1.73;1.63;;;;;;;25.16;63.98;97644.22;5052178;28;20205;-31
2022/08/02 00:08:20;;;;;;;1.80;1.70;;;;;;;25.15;63.69;97633.06;5013775;28;20742;-31
2022/08/02 00:10:46;;;;;;;2.10;1.90;;;;;;;25.15;64.09;97635.63;5049318;28;20221;-31
2022/08/02 00:13:13;;;;;;;2.20;2.00;;;;;;;25.16;64.04;97641.66;5058243;28;20287;-31
2022/08/02 00:15:39;;;;;;;1.93;1.80;;;;;;;25.14;63.90;97631.34;5050432;28;20287;-31
2022/08/02 00:18:06;;;;;;;2.00;1.90;;;;;;;25.15;64.22;97640.78;5049886;28;20292;-31
2022/08/02 00:20:33;;;;;;;2.30;2.10;;;;;;;25.15;64.32;97640.78;5053916;28;20272;-31
2022/08/02 00:22:59;;;;;;;1.90;1.80;;;;;;;25.15;64.29;97638.22;5038920;28;20287;-31
2022/08/02 00:25:26;;;;;;;2.10;1.90;;;;;;;25.14;64.25;97637.34;5051465;28;20299;-31
2022/08/02 00:27:52;;;;;;;1.90;1.80;;;;;;;25.14;64.24;97632.19;5052278;28;20239;-31
2022/08/02 00:30:19;;;;;;;2.03;1.83;;;;;;;25.14;63.90;97627.03;5050870;28;20224;-31
2022/08/02 00:32:45;;;;;;;2.30;2.10;;;;;;;25.10;63.98;97624.41;5050301;28;20247;-31
2022/08/02 00:35:12;;;;;;;2.20;1.90;;;;;;;25.15;64.15;97633.06;5038970;28;20264;-31
2022/08/02 00:37:40;;;;;;;1.93;1.83;;;;;;;25.12;64.44;97627.88;5052652;28;20279;-31
2022/08/02 00:40:10;;;;;;;2.20;1.87;;;;;;;25.14;64.46;97621.91;5047901;28;20256;-31
2022/08/02 00:42:38;;;;;;;1.90;1.80;;;;;;;25.11;64.12;97610.72;5029148;28;20292;-31
2022/08/02 00:45:05;;;;;;;2.67;2.03;;;;;;;25.14;64.39;97621.91;5054426;28;20503;-31
2022/08/02 00:47:31;;;;;;;2.00;1.87;;;;;;;25.14;64.31;97621.91;5058752;28;20309;-31
2022/08/02 00:49:58;;;;;;;2.03;1.73;;;;;;;25.14;64.16;97619.34;5054707;28;20314;-31
2022/08/02 00:52:24;;;;;;;2.10;2.00;;;;;;;25.14;64.33;97615.91;5049712;28;20228;-31
2022/08/02 00:54:51;;;;;;;2.03;1.93;;;;;;;25.13;64.02;97621.88;5050241;28;20201;-31
2022/08/02 00:57:18;;;;;;;2.00;1.80;;;;;;;25.08;64.36;97611.50;5057839;28;20239;-31
2022/08/02 00:59:44;;;;;;;2.07;1.80;;;;;;;25.13;64.08;97618.47;5053918;28;20228;-31
2022/08/02 01:02:11;;;;;;;2.90;2.10;;;;;;;25.13;64.51;97621.88;5046731;28;20308;-31
2022/08/02 01:04:38;;;;;;;1.70;1.60;;;;;;;25.13;64.30;97634.72;5048030;28;20201;-31
2022/08/02 01:07:04;;;;;;;1.70;1.60;;;;;;;25.13;64.21;97625.31;5044856;28;20236;-31
2022/08/02 01:09:40;;;;;;;1.90;1.80;;;;;;;25.13;64.21;97630.47;5048609;28;20220;-31
2022/08/02 01:12:07;;;;;;;2.00;1.90;;;;;;;25.09;64.63;97623.56;5039045;28;20284;-31
2022/08/02 01:14:35;;;;;;;2.03;1.83;;;;;;;25.13;64.27;97629.59;5025876;28;20211;-31
2022/08/02 01:17:11;;;;;;;2.03;1.90;;;;;;;25.14;64.32;97633.91;5046272;28;20240;-31
2022/08/02 01:19:46;;;;;;;2.30;2.10;;;;;;;25.14;64.24;97626.19;5031199;28;20220;-31
2022/08/02 01:22:47;;;;;;;1.90;1.80;;;;;;;25.13;64.70;97627.91;5049541;28;20232;-31
2022/08/02 01:26:05;;;;;;;2.17;1.97;;;;;;;25.13;64.51;97633.03;5044046;28;20255;-31
2022/08/02 01:28:38;;;;;;;2.33;2.20;;;;;;;25.13;64.59;97625.31;5045656;28;20283;-31
2022/08/02 01:31:23;;;;;;;2.30;2.00;;;;;;;25.14;64.41;97626.19;5042812;28;20270;-31
2022/08/02 01:33:55;;;;;;;1.90;1.80;;;;;;;25.11;64.30;97615.88;5046920;28;20748;-31
2022/08/02 01:36:22;;;;;;;2.13;1.90;;;;;;;25.06;64.57;97610.66;5025891;28;20268;-31
2022/08/02 01:38:49;;;;;;;2.20;2.00;;;;;;;25.13;64.61;97617.59;5029161;28;20286;-31
2022/08/02 01:41:18;;;;;;;2.67;1.70;;;;;;;25.10;64.69;97614.09;5044966;28;20307;-31
2022/08/02 01:43:45;;;;;;;1.90;1.80;;;;;;;25.10;64.39;97615.00;5029785;28;20224;-31
2022/08/02 01:46:13;;;;;;;1.97;1.87;;;;;;;25.13;64.31;97621.03;5027922;28;20247;-31
2022/08/02 01:48:40;;;;;;;2.00;1.90;;;;;;;25.12;64.40;97620.16;5015289;28;20288;-31
2022/08/02 01:51:07;;;;;;;2.03;1.83;;;;;;;25.12;64.54;97627.88;5040021;28;20319;-31
2022/08/02 01:53:34;;;;;;;2.13;1.93;;;;;;;25.10;64.74;97624.41;5030358;28;20743;-31
2022/08/02 01:56:01;;;;;;;2.00;1.90;;;;;;;25.12;64.52;97635.59;5019314;28;20734;-31
2022/08/02 01:58:30;;;;;;;2.10;1.90;;;;;;;25.09;64.82;97636.41;5011132;28;20724;-31
2022/08/02 02:00:57;;;;;;;2.73;1.83;;;;;;;25.02;64.78;97626.00;5010126;28;20292;-31
2022/08/02 02:03:24;;;;;;;2.40;2.00;;;;;;;25.12;64.54;97640.72;5030959;28;20683;-31
2022/08/02 02:05:52;;;;;;;2.33;2.13;;;;;;;25.09;64.55;97636.41;5025966;28;20265;-31
2022/08/02 02:08:20;;;;;;;2.57;1.90;;;;;;;25.11;64.92;97645.00;5028900;28;20236;-31
2022/08/02 02:10:53;;;;;;;2.87;2.07;;;;;;;25.12;64.77;97648.44;5045038;28;20300;-31
2022/08/02 02:13:20;;;;;;;2.40;1.80;;;;;;;25.10;64.94;97651.00;5024596;28;20239;-31
2022/08/02 02:15:59;;;;;;;1.70;1.60;;;;;;;25.11;64.56;97647.56;5017683;28;20209;-31
2022/08/02 02:18:26;;;;;;;1.87;1.77;;;;;;;25.03;64.46;97638.00;5025496;28;20204;-31
2022/08/02 02:20:53;;;;;;;2.83;2.17;;;;;;;25.08;64.92;97652.66;5014261;28;20245;-31
2022/08/02 02:23:19;;;;;;;3.20;1.77;;;;;;;25.10;64.94;97653.56;5010091;28;20288;-31
2022/08/02 02:25:51;;;;;;;1.90;1.80;;;;;;;24.99;64.97;97647.34;5024558;28;20201;-31
2022/08/02 02:28:23;;;;;;;1.80;1.70;;;;;;;25.09;65.02;97658.69;5028919;28;20201;-31
2022/08/02 02:30:52;;;;;;;1.90;1.80;;;;;;;25.08;65.19;97657.81;5030015;28;20271;-31
2022/08/02 02:33:20;;;;;;;1.93;1.83;;;;;;;25.05;65.03;97644.06;5018582;28;20532;-31
2022/08/02 02:35:52;;;;;;;2.10;1.90;;;;;;;25.10;64.81;97658.72;5015264;28;20204;-31
2022/08/02 02:38:19;;;;;;;2.10;2.00;;;;;;;25.02;64.94;97642.28;5008476;28;20299;-31
2022/08/02 02:40:46;;;;;;;1.90;1.80;;;;;;;25.10;65.01;97663.84;5027289;28;20256;-31
2022/08/02 02:43:13;;;;;;;2.20;2.00;;;;;;;25.05;64.85;97664.63;5033747;28;20283;-31
2022/08/02 02:45:40;;;;;;;2.30;1.90;;;;;;;25.11;64.69;97668.16;5035999;28;20255;-31
2022/08/02 02:48:07;;;;;;;2.00;1.90;;;;;;;25.10;64.97;97661.28;5019158;28;20240;-31
2022/08/02 02:53:09;;;;;;;1.93;1.83;;;;;;;24.94;65.11;97633.56;5038731;28;20212;-21
2022/08/02 02:55:36;;;;;;;2.13;2.00;;;;;;;25.10;65.02;97666.44;5012963;28;20814;-21
2022/08/02 02:58:02;;;;;;;2.03;1.87;;;;;;;25.08;64.96;97665.53;5017468;28;20637;-21
2022/08/02 03:03:14;;;;;;;1.90;1.80;;;;;;;25.03;65.06;97648.28;5024832;28;20296;-21
2022/08/02 03:05:45;;;;;;;2.10;1.90;;;;;;;25.11;64.56;97664.72;5007940;28;20288;-20
2022/08/02 03:08:11;;;;;;;2.47;2.00;;;;;;;25.10;65.07;97669.00;5031063;28;20232;-21
2022/08/02 03:10:38;;;;;;;1.80;1.70;;;;;;;24.78;64.76;97615.28;5012469;28;20288;-21
2022/08/02 03:13:05;;;;;;;1.70;1.60;;;;;;;24.77;65.01;97609.28;5010098;28;20280;-21
2022/08/02 03:15:31;;;;;;;2.47;2.00;;;;;;;25.10;65.17;97674.16;5012667;28;20205;-21
2022/08/02 03:17:58;;;;;;;1.90;1.80;;;;;;;25.09;65.14;97671.53;5013463;28;20292;-21
2022/08/02 03:20:24;;;;;;;2.87;1.97;;;;;;;25.10;65.02;97673.25;5023682;28;20324;-21
2022/08/02 03:22:51;;;;;;;2.20;2.00;;;;;;;25.10;65.10;97670.69;5023753;28;20257;-21
2022/08/02 03:25:18;;;;;;;3.27;1.70;;;;;;;25.10;64.99;97663.84;5017622;28;20241;-21
2022/08/02 03:27:44;;;;;;;2.23;2.07;;;;;;;25.10;64.84;97675.84;5028353;28;20256;-21
2022/08/02 03:30:11;;;;;;;1.83;1.73;;;;;;;25.09;65.14;97669.84;5027246;28;20236;-21
2022/08/02 03:32:39;;;;;;;2.10;2.00;;;;;;;25.10;64.70;97668.13;5026943;28;20581;-21
2022/08/02 03:35:08;;;;;;;2.27;2.07;;;;;;;25.10;65.23;97678.41;5011288;28;20368;-21
2022/08/02 03:37:35;;;;;;;2.13;1.93;;;;;;;25.09;65.17;97677.56;5013366;28;20551;-21
2022/08/02 03:40:02;;;;;;;2.63;2.00;;;;;;;25.09;65.06;97682.72;5010046;28;20289;-21
2022/08/02 03:42:28;;;;;;;1.90;1.80;;;;;;;24.90;64.91;97652.34;5024333;28;20793;-21
2022/08/02 03:44:55;;;;;;;2.47;1.90;;;;;;;25.08;64.88;97674.97;5010291;28;20214;-21
2022/08/02 03:47:22;;;;;;;2.00;1.80;;;;;;;25.08;65.35;97674.97;5010611;28;20297;-21
2022/08/02 03:49:48;;;;;;;2.07;1.87;;;;;;;25.07;65.46;97686.06;5015859;28;20749;-21
2022/08/02 03:52:15;;;;;;;2.60;2.20;;;;;;;24.99;65.29;97649.09;5002677;28;20230;-21
2022/08/02 03:54:42;;;;;;;2.17;1.80;;;;;;;24.98;65.20;97655.94;5002700;28;20212;-21
2022/08/02 03:57:11;;;;;;;2.20;2.00;;;;;;;25.08;65.39;97670.66;5003391;28;20209;-21
2022/08/02 03:59:41;;;;;;;1.80;1.70;;;;;;;25.07;65.26;97686.06;5004806;28;20440;-21
2022/08/02 04:02:08;;;;;;;1.90;1.80;;;;;;;25.08;64.88;97693.81;5021984;28;20229;-21
2022/08/02 04:04:35;;;;;;;1.93;1.83;;;;;;;25.08;65.10;97670.66;5021955;28;20343;-21
2022/08/02 04:07:02;;;;;;;1.97;1.87;;;;;;;25.09;64.99;97674.13;5021898;28;20292;-21
2022/08/02 04:09:33;;;;;;;2.23;2.00;;;;;;;25.09;64.83;97680.13;5021228;28;20213;-21
2022/08/02 04:11:59;;;;;;;2.80;2.00;;;;;;;25.09;65.35;97676.69;5021357;28;20324;-21
2022/08/02 04:14:26;;;;;;;1.67;1.57;;;;;;;25.08;64.92;97683.53;5021888;28;20320;-21
2022/08/02 04:16:58;;;;;;;2.57;1.90;;;;;;;25.00;64.99;97667.13;4997824;28;20205;-20
2022/08/02 04:19:32;;;;;;;2.50;2.07;;;;;;;25.08;65.23;97683.53;4989409;28;20210;-21
2022/08/02 04:22:03;;;;;;;5.17;2.30;;;;;;;25.09;66.23;97692.13;5008230;28;20320;-21
2022/08/02 04:24:40;;;;;;;5.07;2.80;;;;;;;25.09;66.70;97679.25;5011534;28;20243;-24
2022/08/02 04:27:07;;;;;;;4.60;2.57;;;;;;;24.81;67.15;97630.75;5008745;28;20621;-21
2022/08/02 04:29:54;;;;;;;4.57;2.77;;;;;;;25.09;67.67;97676.69;5000206;28;20212;-21
2022/08/02 04:32:20;;;;;;;5.33;2.80;;;;;;;23.06;67.62;97321.78;4994450;28;20730;-21
2022/08/02 04:34:47;;;;;;;3.37;2.50;;;;;;;25.08;67.92;97670.66;5010921;28;20233;-21
2022/08/02 04:37:33;;;;;;;4.73;2.83;;;;;;;25.08;68.29;97678.38;5010834;28;20742;-21
2022/08/02 04:40:00;;;;;;;3.20;2.60;;;;;;;25.07;68.09;97686.94;5027587;28;20252;-21
2022/08/02 04:42:27;;;;;;;8.70;2.60;;;;;;;25.06;68.21;97685.22;5023439;28;20327;-21
2022/08/02 04:44:53;;;;;;;4.07;2.60;;;;;;;25.07;68.05;97692.09;5014985;28;20198;-21
2022/08/02 04:47:20;;;;;;;3.67;2.20;;;;;;;25.06;68.06;97698.09;5025530;28;20740;-21
2022/08/02 04:50:07;;;;;;;5.87;2.60;;;;;;;25.05;68.31;97698.91;5014804;28;20728;-21
2022/08/02 04:52:33;;;;;;;3.07;2.40;;;;;;;25.04;67.99;97704.91;5020437;28;20319;-21
2022/08/02 04:55:00;;;;;;;4.70;2.80;;;;;;;25.05;67.85;97703.19;5029573;28;20288;-21
2022/08/02 05:00:18;;;;;;;3.40;2.40;;;;;;;25.05;67.95;97710.91;5019611;28;20292;-21
2022/08/02 05:02:45;;;;;;;4.37;2.70;;;;;;;25.03;67.63;97716.03;5012120;28;20317;-21
2022/08/02 05:05:11;;;;;;;6.03;2.67;;;;;;;25.03;67.70;97713.47;5014107;28;20226;-21
2022/08/02 05:07:38;;;;;;;3.87;2.33;;;;;;;25.04;67.24;97719.44;5017376;28;20265;-21
2022/08/02 05:10:05;;;;;;;3.70;2.50;;;;;;;25.01;67.57;97714.25;5021501;28;20286;-21
2022/08/02 05:12:32;;;;;;;3.93;2.33;;;;;;;25.03;67.99;97720.28;5020412;28;20281;-21
2022/08/02 05:14:58;;;;;;;2.73;2.10;;;;;;;25.04;67.45;97727.16;5018370;28;20289;-22
2022/08/02 05:17:25;;;;;;;3.80;2.30;;;;;;;25.04;67.57;97728.03;5014800;28;20293;-21
2022/08/02 05:19:51;;;;;;;2.50;2.30;;;;;;;25.05;67.17;97718.63;5012918;28;20288;-21
2022/08/02 05:22:18;;;;;;;4.00;2.50;;;;;;;25.05;67.09;97718.63;5021777;28;20321;-21
2022/08/02 05:24:44;;;;;;;3.57;2.37;;;;;;;25.04;67.20;97720.31;5019696;28;20244;-21
2022/08/02 05:27:11;;;;;;;3.53;2.80;;;;;;;25.06;67.44;97722.94;5019397;28;20507;-21
2022/08/02 05:29:48;;;;;;;4.20;2.47;;;;;;;25.06;67.45;97723.81;5018666;28;20227;-21
2022/08/02 05:32:19;;;;;;;4.80;3.07;;;;;;;25.04;67.35;97712.59;5014249;28;20908;-21
2022/08/02 05:34:49;;;;;;;3.20;2.70;;;;;;;25.06;67.65;97723.81;5010251;28;20201;-21
2022/08/02 05:37:15;;;;;;;3.00;2.30;;;;;;;25.06;67.17;97713.50;5016620;28;20241;-22
2022/08/02 05:39:43;;;;;;;6.77;2.60;;;;;;;25.06;67.39;97710.06;5018668;28;20620;-21
2022/08/02 05:42:22;;;;;;;3.50;2.50;;;;;;;25.07;67.31;97706.66;5027921;28;20221;-21
2022/08/02 05:44:48;;;;;;;3.77;2.53;;;;;;;25.06;67.47;97705.81;5017843;28;20255;-21
2022/08/02 05:47:15;;;;;;;5.00;2.63;;;;;;;25.07;67.33;97706.66;5027453;28;20237;-21
2022/08/02 05:49:41;;;;;;;2.83;2.50;;;;;;;25.06;67.76;97705.81;5018214;28;20230;-22
2022/08/02 05:52:10;;;;;;;3.27;2.40;;;;;;;25.06;66.82;97703.22;5013430;28;20941;-21
2022/08/02 05:54:54;;;;;;;2.57;2.37;;;;;;;25.07;66.90;97711.78;5023158;28;20206;-21
2022/08/02 05:57:42;;;;;;;2.50;2.30;;;;;;;25.06;67.15;97708.38;5010142;28;20279;-21
2022/08/02 06:00:13;;;;;;;3.07;2.37;;;;;;;25.07;66.51;97711.78;5026253;28;20206;-21
2022/08/02 06:02:42;;;;;;;2.47;2.27;;;;;;;25.07;66.69;97710.09;5021864;28;20316;-21
2022/08/02 06:05:13;;;;;;;2.57;2.20;;;;;;;25.07;66.67;97711.78;5018895;28;20249;-21
2022/08/02 06:07:43;;;;;;;2.30;2.10;;;;;;;25.06;66.21;97710.94;5020576;28;20233;-21
2022/08/02 06:10:13;;;;;;;3.47;2.37;;;;;;;25.06;66.42;97705.81;5006712;28;20234;-21
2022/08/02 06:12:50;;;;;;;2.57;2.30;;;;;;;24.98;66.60;97693.63;5016980;28;20657;-21
2022/08/02 06:15:17;;;;;;;3.53;2.03;;;;;;;25.07;66.29;97714.34;5009681;28;20232;-21
2022/08/02 06:17:45;;;;;;;2.50;2.30;;;;;;;25.07;66.21;97710.09;5021730;28;20356;-21
2022/08/02 06:20:13;;;;;;;4.00;2.43;;;;;;;25.07;66.24;97722.06;5027804;28;20581;-21
2022/08/02 06:22:42;;;;;;;2.53;2.33;;;;;;;25.08;66.06;97726.41;5025735;28;20229;-21
2022/08/02 06:25:10;;;;;;;2.87;2.20;;;;;;;25.07;66.15;97725.53;5024680;28;20600;-21
2022/08/02 06:28:00;;;;;;;4.10;2.43;;;;;;;25.07;66.14;97727.22;5021065;28;20205;-21
2022/08/02 06:30:27;;;;;;;3.10;2.00;;;;;;;25.06;66.12;97725.50;5025446;28;20641;-21
2022/08/02 06:32:53;;;;;;;3.30;2.33;;;;;;;25.07;66.53;97724.66;5021939;28;20213;-21
2022/08/02 06:35:20;;;;;;;3.27;2.10;;;;;;;25.06;66.37;97721.22;5021379;28;20289;-21
2022/08/02 06:37:51;;;;;;;2.63;2.07;;;;;;;24.82;66.01;97686.47;5028396;28;20288;-21
2022/08/02 06:40:30;;;;;;;2.20;2.00;;;;;;;25.07;66.04;97717.81;5013057;28;20697;-21
2022/08/02 06:43:17;;;;;;;2.97;2.03;;;;;;;25.01;66.12;97715.13;5019815;28;20357;-21
2022/08/02 06:45:44;;;;;;;2.13;2.03;;;;;;;25.09;66.15;97722.97;5014129;28;20292;-21
2022/08/02 06:48:10;;;;;;;2.60;2.13;;;;;;;24.83;66.09;97673.66;5030239;28;20292;-21
2022/08/02 06:50:37;;;;;;;2.10;1.90;;;;;;;25.09;66.07;97722.97;5012773;28;20285;-21
2022/08/02 06:53:05;;;;;;;2.03;1.80;;;;;;;25.08;66.16;97719.53;5026718;28;20203;-20
2022/08/02 06:55:31;;;;;;;2.37;2.00;;;;;;;25.08;65.93;97718.69;5018181;28;20607;-21
2022/08/02 06:58:09;;;;;;;3.23;1.83;;;;;;;25.08;65.49;97721.25;5020335;28;20289;-21
2022/08/02 07:00:35;;;;;;;2.47;1.90;;;;;;;25.09;65.67;97725.56;5029581;28;20292;-22
2022/08/02 07:03:02;;;;;;;2.20;2.00;;;;;;;25.10;65.67;97724.69;5022026;28;20309;-23
2022/08/02 07:05:29;;;;;;;2.20;2.00;;;;;;;25.08;65.81;97723.84;4993393;28;20580;-21
2022/08/02 07:07:56;;;;;;;2.07;1.87;;;;;;;25.09;65.32;97717.84;5031502;28;20244;-21
2022/08/02 07:10:22;;;;;;;4.23;2.10;;;;;;;25.08;62.46;97705.81;5023275;28;20212;-21
2022/08/02 07:12:49;;;;;;;3.13;2.17;;;;;;;25.08;62.53;97710.97;5018178;28;20237;-21
2022/08/02 07:15:16;;;;;;;2.10;1.90;;;;;;;25.07;62.47;97706.66;5030961;28;20297;-21
2022/08/02 07:17:42;;;;;;;2.33;1.90;;;;;;;25.06;62.54;97708.38;5021983;28;20289;-21
2022/08/02 07:20:09;;;;;;;2.43;1.90;;;;;;;24.98;62.74;97691.03;5019662;28;20202;-21
2022/08/02 07:22:35;;;;;;;2.00;1.90;;;;;;;25.06;63.09;97710.94;5009456;28;20333;-21
2022/08/02 07:25:02;;;;;;;2.33;2.13;;;;;;;25.04;63.04;97722.03;5018165;28;20725;-21
2022/08/02 07:27:29;;;;;;;2.00;1.90;;;;;;;25.06;63.33;97717.78;5028987;28;20280;-21
2022/08/02 07:29:56;;;;;;;2.00;1.80;;;;;;;25.06;63.52;97726.38;5017117;28;20210;-21
2022/08/02 07:32:24;;;;;;;3.77;1.90;;;;;;;25.06;63.41;97722.94;5022456;28;20218;-21
2022/08/02 07:34:51;;;;;;;2.00;1.90;;;;;;;25.07;64.08;97752.94;5020647;28;20255;-21
2022/08/02 07:37:21;;;;;;;2.00;1.90;;;;;;;25.06;63.06;97718.66;5022752;28;20198;-21
2022/08/02 07:40:09;;;;;;;10.00;2.37;;;;;;;25.07;63.29;97725.53;5021987;28;20197;-21
2022/08/02 07:42:41;;;;;;;2.70;2.07;;;;;;;25.07;63.99;97715.25;5030323;28;20221;-20
2022/08/02 07:45:09;;;;;;;3.07;2.00;;;;;;;25.07;62.38;97722.94;5018942;28;20222;-21
2022/08/02 07:47:37;;;;;;;2.67;2.00;;;;;;;25.07;62.02;97716.94;5027034;28;20224;-21
2022/08/02 07:50:04;;;;;;;2.10;1.90;;;;;;;25.07;62.14;97716.94;5027087;28;20674;-21
2022/08/02 07:52:31;;;;;;;4.33;2.57;;;;;;;25.06;60.27;97710.06;5025155;28;20336;-21
2022/08/02 07:54:57;;;;;;;3.03;2.23;;;;;;;25.06;59.69;97702.34;5022305;28;20237;-21
2022/08/02 07:57:24;;;;;;;5.97;2.40;;;;;;;25.06;59.29;97708.38;5017261;28;20293;-21
2022/08/02 07:59:51;;;;;;;2.43;1.90;;;;;;;25.06;59.96;97698.09;5021020;28;20201;-21
2022/08/02 08:02:17;;;;;;;1.83;1.67;;;;;;;25.06;60.53;97699.78;5022370;28;20260;-21
2022/08/02 08:04:44;;;;;;;4.20;1.80;;;;;;;23.66;61.17;97454.69;5023093;28;20301;-21
2022/08/02 08:07:10;;;;;;;2.63;1.80;;;;;;;25.07;62.01;97696.34;5024149;28;20233;-30
2022/08/02 08:09:40;;;;;;;2.53;1.97;;;;;;;25.07;62.44;97692.09;5024289;28;20326;-21
2022/08/02 08:12:07;;;;;;;2.07;1.80;;;;;;;25.08;62.79;97687.81;5024493;28;20257;-21
2022/08/02 08:14:35;;;;;;;2.10;1.67;;;;;;;25.09;63.26;97686.97;5018802;28;20213;-21
2022/08/02 08:17:02;;;;;;;3.30;2.07;;;;;;;25.09;63.15;97680.13;5022101;28;20748;-21
2022/08/02 08:19:28;;;;;;;1.97;1.73;;;;;;;25.10;63.23;97683.56;5022448;28;20293;-21
2022/08/02 08:22:15;;;;;;;1.80;1.70;;;;;;;25.10;63.29;97681.84;5021396;28;20610;-21
2022/08/02 08:24:42;;;;;;;2.23;1.90;;;;;;;25.12;63.78;97687.03;5019286;28;20230;-21
2022/08/02 08:27:13;;;;;;;2.40;1.70;;;;;;;25.13;63.54;97682.75;5021306;28;20294;-21
2022/08/02 08:29:41;;;;;;;2.23;1.93;;;;;;;25.13;63.51;97687.91;5018439;28;20202;-20
2022/08/02 08:32:07;;;;;;;2.20;1.90;;;;;;;25.13;63.70;97696.47;5019594;28;20709;-22
2022/08/02 08:34:41;;;;;;;1.90;1.80;;;;;;;25.14;63.87;97696.50;5023833;28;20292;-21
2022/08/02 08:37:08;;;;;;;3.67;1.80;;;;;;;25.14;63.38;97687.94;5023667;28;20198;-21
2022/08/02 08:39:42;;;;;;;2.00;1.80;;;;;;;25.14;63.52;97688.78;5025298;28;20232;-20
2022/08/02 08:42:27;;;;;;;1.97;1.83;;;;;;;25.16;64.00;97690.53;5018107;28;20229;-21
2022/08/02 08:44:55;;;;;;;1.90;1.70;;;;;;;25.16;63.66;97693.94;5026226;28;20626;-21
2022/08/02 08:47:22;;;;;;;2.07;1.87;;;;;;;25.17;63.99;97694.81;5023773;28;20202;-21
2022/08/02 08:49:51;;;;;;;2.50;2.00;;;;;;;25.17;63.64;97687.09;5006719;28;20296;-21
2022/08/02 08:52:19;;;;;;;2.53;2.10;;;;;;;25.17;63.63;97693.97;5050260;23;20784;-31
2022/08/02 08:54:45;;;;;;;1.97;1.80;;;;;;;25.13;63.99;97683.59;5063173;28;20694;-31
2022/08/02 08:57:15;;;;;;;1.70;1.60;;;;;;;25.14;64.13;97685.34;5055673;28;20660;-31
2022/08/02 08:59:41;;;;;;;1.73;1.60;;;;;;;25.18;63.37;97689.72;5059017;28;20215;-31
2022/08/02 09:02:09;;;;;;;1.80;1.70;;;;;;;25.18;64.08;97682.00;5062079;28;20340;-31
2022/08/02 09:04:47;;;;;;;1.73;1.63;;;;;;;25.19;63.86;97691.44;5068891;28;20653;-31
2022/08/02 09:07:21;;;;;;;1.60;1.50;;;;;;;25.13;63.76;97681.91;5064405;28;20204;-31
2022/08/02 09:09:48;;;;;;;3.27;2.00;;;;;;;25.20;63.57;97689.72;5069606;28;20204;-31
2022/08/02 09:12:15;;;;;;;1.97;1.63;;;;;;;25.17;63.99;97693.97;5069310;28;20250;-31
2022/08/02 09:14:42;;;;;;;2.03;1.93;;;;;;;25.20;64.09;97694.88;5068126;28;20681;-31
2022/08/02 09:17:10;;;;;;;1.80;1.70;;;;;;;25.16;63.75;97690.53;5069355;28;20251;-31
2022/08/02 09:19:37;;;;;;;2.40;1.77;;;;;;;25.17;63.77;97692.25;5068518;28;20331;-31
2022/08/02 09:22:11;;;;;;;2.17;1.63;;;;;;;25.19;64.05;97700.88;5061073;28;20255;-31
2022/08/02 09:24:49;;;;;;;2.63;1.70;;;;;;;25.21;63.57;97706.88;5066309;28;20420;-31
2022/08/02 09:27:17;;;;;;;1.70;1.60;;;;;;;25.19;63.80;97691.44;5064392;28;20210;-31
2022/08/02 09:29:48;;;;;;;1.90;1.63;;;;;;;25.21;64.05;97705.19;5069126;28;20227;-31
2022/08/02 09:32:45;;;;;;;1.57;1.47;;;;;;;25.21;63.65;97692.34;5067047;28;20265;-31
2022/08/02 09:35:12;;;;;;;3.23;1.70;;;;;;;25.22;64.00;97696.63;5068004;28;20211;-31
2022/08/02 09:37:39;;;;;;;2.10;1.90;;;;;;;25.22;63.77;97693.22;5067734;28;20627;-31
2022/08/02 09:40:09;;;;;;;3.83;1.77;;;;;;;25.22;63.95;97696.63;5069600;28;20231;-31
2022/08/02 09:42:36;;;;;;;1.73;1.50;;;;;;;25.22;63.70;97694.06;5068844;28;20273;-31
2022/08/02 09:45:03;;;;;;;3.00;1.73;;;;;;;25.22;63.76;97694.06;5067324;28;20247;-31
2022/08/02 09:47:29;;;;;;;2.23;1.60;;;;;;;25.23;64.06;97707.78;5063181;28;20201;-31
2022/08/02 09:49:57;;;;;;;2.23;1.70;;;;;;;25.24;64.10;97701.81;5067629;28;20204;-31
2022/08/02 09:52:27;;;;;;;1.70;1.60;;;;;;;25.23;64.11;97705.22;5071216;28;20227;-31
2022/08/02 09:55:10;;;;;;;4.10;1.60;;;;;;;25.24;63.85;97704.38;5068451;28;20212;-31
2022/08/02 09:57:39;;;;;;;1.70;1.60;;;;;;;25.24;64.16;97705.25;5074112;28;20358;-31
2022/08/02 10:00:09;;;;;;;1.83;1.63;;;;;;;25.24;64.14;97701.81;5061340;28;20319;-31
2022/08/02 10:03:05;;;;;;;4.77;1.80;;;;;;;25.24;64.04;97702.69;5068470;28;20230;-31
2022/08/02 10:05:46;;;;;;;1.63;1.53;;;;;;;25.24;63.96;97705.25;5071000;28;20671;-31
2022/08/02 10:08:21;;;;;;;1.60;1.47;;;;;;;25.25;64.01;97698.41;5061924;28;20211;-31
2022/08/02 10:10:47;;;;;;;2.27;1.80;;;;;;;25.24;64.05;97688.94;5068928;28;20204;-31
2022/08/02 10:13:14;;;;;;;3.27;1.60;;;;;;;25.26;63.71;97694.97;5069151;28;20250;-31
2022/08/02 10:15:47;;;;;;;1.67;1.40;;;;;;;25.24;63.97;97687.25;5068179;28;20285;-31
2022/08/02 10:18:16;;;;;;;2.03;1.80;;;;;;;25.26;63.72;97689.84;5067342;28;20204;-31
2022/08/02 10:21:02;;;;;;;1.57;1.40;;;;;;;25.26;63.75;97689.84;5073955;28;20659;-31
2022/08/02 10:23:32;;;;;;;2.80;1.83;;;;;;;25.17;63.72;97677.69;5051021;28;20220;-31
2022/08/02 10:25:59;;;;;;;1.70;1.57;;;;;;;25.26;63.96;97676.97;5065649;28;20239;-31
2022/08/02 10:28:30;;;;;;;1.67;1.57;;;;;;;25.22;63.66;97673.47;5062754;28;20234;-31
2022/08/02 10:30:58;;;;;;;2.33;1.50;;;;;;;25.28;64.03;97680.44;5067377;28;20227;-31
2022/08/02 10:33:25;;;;;;;1.73;1.63;;;;;;;25.26;64.06;97672.72;5068377;28;20346;-31
2022/08/02 10:35:53;;;;;;;1.50;1.40;;;;;;;25.20;63.61;97657.16;5059978;28;20258;-31
2022/08/02 10:38:32;;;;;;;1.77;1.53;;;;;;;25.26;63.99;97664.13;5053588;28;20208;-31
2022/08/02 10:40:59;;;;;;;3.13;1.87;;;;;;;25.27;63.80;97656.41;5066376;28;20295;-31
2022/08/02 10:43:35;;;;;;;1.70;1.60;;;;;;;25.28;63.67;97652.16;5068017;28;20231;-31
2022/08/02 10:46:21;;;;;;;2.40;1.77;;;;;;;25.25;64.03;97642.66;5063034;28;20773;-31
2022/08/02 10:49:08;;;;;;;1.63;1.53;;;;;;;25.28;64.11;97647.00;5063701;28;20272;-31
2022/08/02 10:52:00;;;;;;;1.77;1.67;;;;;;;25.28;64.13;97637.56;5059337;28;20231;-31
2022/08/02 10:54:30;;;;;;;1.70;1.60;;;;;;;25.29;63.71;97635.88;5054416;28;20692;-31
2022/08/02 10:56:57;;;;;;;1.70;1.60;;;;;;;25.28;63.92;97627.28;5056944;28;20296;-31
2022/08/02 10:59:27;;;;;;;1.63;1.43;;;;;;;25.28;63.79;97627.28;5051774;28;20579;-31
2022/08/02 11:02:00;;;;;;;2.10;1.60;;;;;;;25.29;64.11;97633.28;5052879;28;20687;-31
2022/08/02 11:04:28;;;;;;;1.60;1.50;;;;;;;25.29;63.68;97623.00;5057654;28;20308;-31
2022/08/02 11:07:17;;;;;;;1.50;1.40;;;;;;;25.29;63.94;97620.44;5068363;28;20288;-31
2022/08/02 11:09:44;;;;;;;1.50;1.40;;;;;;;25.29;63.63;97623.88;5069075;28;20296;-31
2022/08/02 11:12:15;;;;;;;1.93;1.63;;;;;;;24.75;64.10;97538.13;5071709;28;20341;-31
2022/08/02 11:14:43;;;;;;;3.03;1.80;;;;;;;25.26;63.92;97622.94;5069992;28;20281;-31
2022/08/02 11:17:11;;;;;;;1.63;1.53;;;;;;;25.26;63.84;97630.66;5062338;28;20227;-31
2022/08/02 11:20:11;;;;;;;1.77;1.67;;;;;;;25.29;63.61;97639.31;5068853;28;20283;-31
2022/08/02 11:22:38;;;;;;;1.77;1.63;;;;;;;25.30;63.47;97637.59;5067402;28;20683;-31
2022/08/02 11:25:21;;;;;;;2.63;1.73;;;;;;;25.29;63.75;97635.88;5064890;28;20243;-31
2022/08/02 11:27:47;;;;;;;1.43;1.33;;;;;;;25.29;63.83;97631.59;5069269;28;20573;-31
2022/08/02 11:30:14;;;;;;;1.80;1.70;;;;;;;25.30;63.92;97635.00;5066631;28;21564;-31
2022/08/02 11:32:41;;;;;;;1.97;1.67;;;;;;;25.29;63.78;97630.72;5070700;28;20243;-31
2022/08/02 11:35:08;;;;;;;1.63;1.53;;;;;;;25.29;63.67;97633.28;5070401;28;20671;-31
2022/08/02 11:37:36;;;;;;;1.60;1.50;;;;;;;25.28;64.08;97634.16;5067643;28;20228;-31
2022/08/02 11:40:16;;;;;;;2.03;1.83;;;;;;;25.28;63.71;97629.84;5071589;28;20588;-31
2022/08/02 11:42:49;;;;;;;1.50;1.40;;;;;;;25.28;63.75;97623.84;5065475;28;20228;-31
2022/08/02 11:45:15;;;;;;;2.00;1.57;;;;;;;25.29;63.75;97620.44;5071456;28;20266;-31
2022/08/02 11:47:48;;;;;;;2.67;1.80;;;;;;;25.28;63.73;97619.56;5070529;28;20220;-32
2022/08/02 11:50:16;;;;;;;2.40;1.70;;;;;;;25.28;63.93;97618.72;5071786;28;20262;-31
2022/08/02 11:52:42;;;;;;;1.77;1.60;;;;;;;25.24;63.60;97602.34;5071604;28;20287;-31
2022/08/02 11:55:09;;;;;;;1.73;1.63;;;;;;;25.28;63.65;97613.56;5071993;28;20204;-31